createdAt,value
2023-05-21T00:01:32.288Z,55.50
2023-05-21T00:04:01.856Z,55.60
2023-05-21T00:06:32.577Z,55.70
2023-05-21T00:09:01.693Z,55.70
2023-05-21T00:11:33.309Z,55.90
2023-05-21T00:14:02.214Z,55.90
2023-05-21T00:16:31.228Z,55.90
2023-05-21T00:19:00.203Z,55.90
2023-05-21T00:21:29.688Z,56.00
2023-05-21T00:23:58.813Z,56.10
2023-05-21T00:26:27.801Z,56.10
2023-05-21T00:29:00.750Z,56.30
2023-05-21T00:31:29.802Z,56.50
2023-05-21T00:33:58.921Z,56.30
2023-05-21T00:36:28.063Z,56.50
2023-05-21T00:38:57.051Z,56.60
2023-05-21T00:41:26.401Z,56.70
2023-05-21T00:43:56.187Z,56.70
2023-05-21T00:46:28.466Z,56.70
2023-05-21T00:48:58.367Z,56.90
2023-05-21T00:51:30.313Z,56.90
2023-05-21T00:53:59.865Z,56.90
2023-05-21T00:56:29.074Z,57.10
2023-05-21T00:58:58.693Z,57.10
2023-05-21T01:01:34.057Z,57.10
2023-05-21T01:04:03.540Z,57.10
2023-05-21T01:06:34.790Z,57.30
2023-05-21T01:09:05.581Z,57.80
2023-05-21T01:11:40.378Z,57.40
2023-05-21T01:14:12.766Z,57.60
2023-05-21T01:16:46.238Z,57.60
2023-05-21T01:19:18.466Z,57.70
2023-05-21T01:21:50.869Z,57.70
2023-05-21T01:24:21.635Z,57.60
2023-05-21T01:26:50.684Z,57.70
2023-05-21T01:29:19.937Z,57.80
2023-05-21T01:32:00.800Z,57.80
2023-05-21T01:34:35.899Z,58.00
2023-05-21T01:37:14.651Z,58.10
2023-05-21T01:39:53.266Z,58.30
2023-05-21T01:42:24.695Z,58.20
2023-05-21T01:44:57.217Z,58.10
2023-05-21T01:47:30.618Z,58.40
2023-05-21T01:50:01.377Z,58.40
2023-05-21T01:52:30.955Z,58.40
2023-05-21T01:55:01.804Z,58.40
2023-05-21T01:57:31.018Z,58.60
2023-05-21T02:00:01.192Z,58.70
2023-05-21T02:02:30.558Z,58.80
2023-05-21T02:05:01.349Z,58.70
2023-05-21T02:07:32.593Z,58.80
2023-05-21T02:10:05.131Z,58.80
2023-05-21T02:12:34.275Z,58.90
2023-05-21T02:15:03.965Z,58.90
2023-05-21T02:17:34.374Z,59.00
2023-05-21T02:20:11.536Z,59.00
2023-05-21T02:22:40.994Z,59.20
2023-05-21T02:25:13.037Z,59.40
2023-05-21T02:27:42.982Z,59.40
2023-05-21T02:30:13.954Z,59.50
2023-05-21T02:32:45.089Z,59.60
2023-05-21T02:35:14.762Z,59.60
2023-05-21T02:37:44.902Z,59.60
2023-05-21T02:40:15.633Z,59.70
2023-05-21T02:42:44.649Z,59.80
2023-05-21T02:45:18.556Z,59.80
2023-05-21T02:47:47.981Z,59.80
2023-05-21T02:50:20.192Z,60.30
2023-05-21T02:52:56.034Z,59.60
2023-05-21T02:55:26.578Z,59.60
2023-05-21T02:57:55.850Z,59.50
2023-05-21T03:00:25.049Z,59.40
2023-05-21T03:02:54.004Z,59.40
2023-05-21T03:05:23.135Z,59.40
2023-05-21T03:07:53.309Z,59.40
2023-05-21T03:10:22.752Z,59.20
2023-05-21T03:12:54.874Z,59.30
2023-05-21T03:15:24.453Z,59.30
2023-05-21T03:17:54.197Z,59.20
2023-05-21T03:20:23.288Z,59.20
2023-05-21T03:22:53.004Z,59.40
2023-05-21T03:25:25.021Z,59.40
2023-05-21T03:27:57.147Z,59.60
2023-05-21T03:30:49.512Z,59.60
2023-05-21T03:33:38.713Z,59.60
2023-05-21T03:36:30.123Z,59.60
2023-05-21T03:38:59.475Z,59.60
2023-05-21T03:41:28.803Z,59.70
2023-05-21T03:44:06.292Z,59.50
2023-05-21T03:46:47.658Z,59.60
2023-05-21T03:49:23.622Z,59.60
2023-05-21T03:51:55.609Z,59.40
2023-05-21T03:54:25.794Z,59.50
2023-05-21T03:56:58.580Z,59.70
2023-05-21T03:59:29.418Z,59.80
2023-05-21T04:01:58.821Z,59.90
2023-05-21T04:04:29.767Z,59.90
2023-05-21T04:06:59.613Z,60.20
2023-05-21T04:09:29.044Z,60.30
2023-05-21T04:11:58.149Z,60.40
2023-05-21T04:14:28.778Z,60.60
2023-05-21T04:16:58.016Z,60.60
2023-05-21T04:19:27.508Z,60.40
2023-05-21T04:21:58.127Z,60.60
2023-05-21T04:24:27.829Z,60.50
2023-05-21T04:27:07.187Z,60.60
2023-05-21T04:29:42.637Z,60.90
2023-05-21T04:32:15.343Z,60.60
2023-05-21T04:34:44.660Z,60.70
2023-05-21T04:37:14.827Z,60.70
2023-05-21T04:39:44.219Z,60.60
2023-05-21T04:42:13.471Z,60.90
2023-05-21T04:44:44.856Z,60.90
2023-05-21T04:47:14.967Z,61.20
2023-05-21T04:49:44.578Z,61.10
2023-05-21T04:52:14.112Z,61.40
2023-05-21T04:54:45.794Z,61.50
2023-05-21T04:57:15.140Z,61.30
2023-05-21T04:59:46.974Z,61.40
2023-05-21T05:02:16.091Z,61.40
2023-05-21T05:04:46.501Z,61.40
2023-05-21T05:07:16.963Z,61.50
2023-05-21T05:09:46.192Z,61.60
2023-05-21T05:12:16.026Z,61.70
2023-05-21T05:14:47.414Z,61.80
2023-05-21T05:17:17.239Z,61.80
2023-05-21T05:19:49.704Z,62.00
2023-05-21T05:22:19.631Z,62.20
2023-05-21T05:24:49.690Z,63.10
2023-05-21T05:27:19.254Z,62.10
2023-05-21T05:29:49.859Z,62.30
2023-05-21T05:32:19.457Z,62.40
2023-05-21T05:34:48.623Z,62.40
2023-05-21T05:37:17.725Z,62.70
2023-05-21T05:39:49.120Z,62.60
2023-05-21T05:42:22.142Z,62.50
2023-05-21T05:44:53.129Z,62.50
2023-05-21T05:47:22.751Z,62.60
2023-05-21T05:49:52.582Z,62.70
2023-05-21T05:52:22.152Z,62.80
2023-05-21T05:54:51.609Z,62.60
2023-05-21T05:57:20.783Z,62.80
2023-05-21T05:59:53.308Z,63.00
2023-05-21T06:02:22.909Z,63.20
2023-05-21T06:04:52.415Z,62.80
2023-05-21T06:07:21.882Z,62.40
2023-05-21T06:09:51.260Z,63.00
2023-05-21T06:12:20.589Z,62.40
2023-05-21T06:14:50.986Z,62.40
2023-05-21T06:17:21.696Z,62.30
2023-05-21T06:19:51.123Z,61.90
2023-05-21T06:22:20.390Z,61.10
2023-05-21T06:24:49.613Z,60.90
2023-05-21T06:27:18.765Z,60.50
2023-05-21T06:29:48.111Z,60.50
2023-05-21T06:32:17.659Z,60.60
2023-05-21T06:34:48.674Z,59.90
2023-05-21T06:37:22.097Z,59.40
2023-05-21T06:39:51.770Z,59.30
2023-05-21T06:42:21.417Z,59.20
2023-05-21T06:45:16.461Z,59.10
2023-05-21T06:47:47.640Z,59.40
2023-05-21T06:50:18.265Z,59.40
2023-05-21T06:52:47.424Z,59.10
2023-05-21T06:55:17.071Z,58.90
2023-05-21T06:58:16.038Z,58.80
2023-05-21T07:00:45.620Z,58.80
2023-05-21T07:03:14.998Z,58.50
2023-05-21T07:05:46.520Z,58.90
2023-05-21T07:08:17.423Z,58.80
2023-05-21T07:10:46.723Z,58.40
2023-05-21T07:13:17.205Z,58.20
2023-05-21T07:15:49.720Z,58.40
2023-05-21T07:18:19.032Z,58.10
2023-05-21T07:20:50.006Z,58.30
2023-05-21T07:23:19.342Z,58.20
2023-05-21T07:25:49.264Z,58.20
2023-05-21T07:28:18.555Z,58.50
2023-05-21T07:30:47.719Z,58.10
2023-05-21T07:33:22.678Z,58.40
2023-05-21T07:35:54.211Z,57.50
2023-05-21T07:38:23.246Z,57.70
2023-05-21T07:40:52.716Z,57.60
2023-05-21T07:43:22.570Z,57.50
2023-05-21T07:45:51.844Z,57.00
2023-05-21T07:48:21.367Z,57.20
2023-05-21T07:51:01.466Z,57.40
2023-05-21T07:53:32.361Z,56.60
2023-05-21T07:56:03.623Z,56.60
2023-05-21T07:58:35.209Z,56.80
2023-05-21T08:01:05.008Z,56.80
2023-05-21T08:03:34.649Z,56.80
2023-05-21T08:06:06.000Z,56.50
2023-05-21T08:08:35.463Z,56.10
2023-05-21T08:11:04.581Z,56.20
2023-05-21T08:13:33.682Z,56.10
2023-05-21T08:16:06.131Z,56.20
2023-05-21T08:18:35.413Z,55.80
2023-05-21T08:21:06.095Z,55.70
2023-05-21T08:23:35.356Z,54.80
2023-05-21T08:26:10.665Z,55.20
2023-05-21T08:28:41.699Z,54.60
2023-05-21T08:31:11.275Z,54.90
2023-05-21T08:33:40.743Z,54.90
2023-05-21T08:36:11.581Z,54.30
2023-05-21T08:38:47.718Z,54.30
2023-05-21T08:41:33.259Z,54.30
2023-05-21T08:44:09.528Z,54.00
2023-05-21T08:46:42.709Z,54.40
2023-05-21T08:49:14.152Z,53.90
2023-05-21T08:51:46.674Z,53.70
2023-05-21T08:54:19.267Z,53.50
2023-05-21T08:56:49.707Z,53.40
2023-05-21T08:59:23.701Z,53.00
2023-05-21T09:01:53.859Z,52.80
2023-05-21T09:04:29.365Z,53.20
2023-05-21T09:07:02.811Z,53.10
2023-05-21T09:09:57.398Z,52.70
2023-05-21T09:12:28.836Z,53.00
2023-05-21T09:15:02.163Z,53.10
2023-05-21T09:17:37.580Z,53.20
2023-05-21T09:20:37.654Z,53.00
2023-05-21T09:23:17.714Z,51.80
2023-05-21T09:25:49.434Z,51.90
2023-05-21T09:28:26.695Z,52.10
2023-05-21T09:31:05.261Z,51.70
2023-05-21T09:33:39.578Z,51.50
2023-05-21T09:36:12.399Z,51.60
2023-05-21T09:38:47.926Z,51.80
2023-05-21T09:41:21.813Z,51.30
2023-05-21T09:43:53.899Z,51.30
2023-05-21T09:46:27.464Z,51.10
2023-05-21T09:48:57.038Z,50.90
2023-05-21T09:51:27.046Z,50.40
2023-05-21T09:53:58.704Z,50.70
2023-05-21T09:56:32.325Z,50.40
2023-05-21T09:59:04.372Z,50.50
2023-05-21T10:01:34.534Z,50.00
2023-05-21T10:04:07.952Z,50.50
2023-05-21T10:06:43.612Z,50.30
2023-05-21T10:09:17.006Z,49.60
2023-05-21T10:11:48.521Z,49.40
2023-05-21T10:14:21.006Z,49.00
2023-05-21T10:16:50.261Z,49.30
2023-05-21T10:19:20.845Z,49.60
2023-05-21T10:21:52.569Z,49.20
2023-05-21T10:24:24.698Z,49.00
2023-05-21T10:26:54.119Z,48.60
2023-05-21T10:29:24.658Z,48.60
2023-05-21T10:31:54.362Z,48.40
2023-05-21T10:34:25.458Z,48.20
2023-05-21T10:36:57.117Z,48.00
2023-05-21T10:39:27.994Z,48.20
2023-05-21T10:42:06.486Z,48.00
2023-05-21T10:44:47.496Z,48.10
2023-05-21T10:47:54.363Z,47.40
2023-05-21T10:50:46.543Z,47.70
2023-05-21T10:53:23.389Z,47.60
2023-05-21T10:56:05.045Z,47.40
2023-05-21T10:58:53.843Z,47.30
2023-05-21T11:01:23.822Z,47.40
2023-05-21T11:03:53.396Z,47.60
2023-05-21T11:06:27.288Z,47.80
2023-05-21T11:08:56.469Z,47.00
2023-05-21T11:11:48.467Z,47.50
2023-05-21T11:14:36.558Z,47.70
2023-05-21T11:17:12.454Z,46.80
2023-05-21T11:19:43.437Z,46.60
2023-05-21T11:22:24.298Z,46.40
2023-05-21T11:24:54.940Z,46.90
2023-05-21T11:27:34.801Z,46.20
2023-05-21T11:30:10.254Z,46.80
2023-05-21T11:32:40.856Z,46.30
2023-05-21T11:35:10.593Z,46.70
2023-05-21T11:37:41.863Z,46.00
2023-05-21T11:40:36.850Z,45.70
2023-05-21T11:43:07.346Z,45.70
2023-05-21T11:45:37.616Z,45.10
2023-05-21T11:48:08.357Z,45.20
2023-05-21T11:50:37.973Z,45.00
2023-05-21T11:53:09.022Z,45.20
2023-05-21T11:55:39.944Z,45.30
2023-05-21T11:58:14.424Z,45.10
2023-05-21T12:00:43.757Z,45.10
2023-05-21T12:03:16.593Z,45.20
2023-05-21T12:05:46.796Z,44.90
2023-05-21T12:08:25.302Z,44.10
2023-05-21T12:10:59.510Z,44.00
2023-05-21T12:13:30.226Z,44.00
2023-05-21T12:16:00.259Z,43.50
2023-05-21T12:18:29.448Z,43.90
2023-05-21T12:20:59.613Z,43.90
2023-05-21T12:23:30.572Z,44.10
2023-05-21T12:25:59.982Z,44.40
2023-05-21T12:28:31.028Z,44.10
2023-05-21T12:31:00.691Z,44.00
2023-05-21T12:33:35.591Z,44.40
2023-05-21T12:36:06.136Z,43.80
2023-05-21T12:38:35.866Z,44.20
2023-05-21T12:41:06.236Z,44.10
2023-05-21T12:43:36.994Z,43.90
2023-05-21T12:46:06.363Z,44.20
2023-05-21T12:48:35.636Z,44.20
2023-05-21T12:51:05.092Z,44.50
2023-05-21T12:53:38.817Z,44.60
2023-05-21T12:56:14.476Z,44.40
2023-05-21T12:58:51.415Z,44.40
2023-05-21T13:01:23.447Z,44.10
2023-05-21T13:03:53.165Z,44.60
2023-05-21T13:06:22.411Z,44.10
2023-05-21T13:08:55.865Z,43.90
2023-05-21T13:11:25.695Z,43.70
2023-05-21T13:13:56.565Z,43.90
2023-05-21T13:16:28.339Z,43.90
2023-05-21T13:18:57.790Z,43.90
2023-05-21T13:21:26.982Z,44.10
2023-05-21T13:23:56.201Z,43.80
2023-05-21T13:26:27.396Z,43.30
2023-05-21T13:28:59.665Z,43.30
2023-05-21T13:31:28.888Z,42.90
2023-05-21T13:33:58.199Z,43.20
2023-05-21T13:36:27.499Z,43.50
2023-05-21T13:38:57.465Z,43.00
2023-05-21T13:41:27.161Z,42.80
2023-05-21T13:44:00.148Z,42.70
2023-05-21T13:46:30.089Z,42.80
2023-05-21T13:48:59.428Z,42.70
2023-05-21T13:51:38.732Z,43.30
2023-05-21T13:54:08.850Z,43.10
2023-05-21T13:56:38.298Z,43.00
2023-05-21T13:59:08.904Z,42.90
2023-05-21T14:01:38.236Z,42.70
2023-05-21T14:04:10.057Z,42.80
2023-05-21T14:06:41.130Z,42.50
2023-05-21T14:09:10.842Z,42.40
2023-05-21T14:11:40.283Z,42.50
2023-05-21T14:14:11.551Z,43.00
2023-05-21T14:16:41.795Z,42.40
2023-05-21T14:19:14.191Z,42.00
2023-05-21T14:21:43.878Z,41.80
2023-05-21T14:24:13.137Z,42.20
2023-05-21T14:26:46.491Z,41.90
2023-05-21T14:29:19.454Z,42.10
2023-05-21T14:31:48.729Z,42.40
2023-05-21T14:34:21.002Z,42.40
2023-05-21T14:36:50.209Z,42.30
2023-05-21T14:39:20.201Z,42.50
2023-05-21T14:41:52.216Z,42.20
2023-05-21T14:44:22.501Z,42.20
2023-05-21T14:46:51.582Z,42.00
2023-05-21T14:49:20.816Z,42.00
2023-05-21T14:51:50.197Z,42.20
2023-05-21T14:54:22.507Z,42.00
2023-05-21T14:56:53.555Z,41.60
2023-05-21T14:59:24.136Z,41.70
2023-05-21T15:01:53.278Z,41.70
2023-05-21T15:04:22.523Z,42.00
2023-05-21T15:06:51.858Z,41.90
2023-05-21T15:09:21.627Z,42.10
2023-05-21T15:11:53.576Z,41.80
2023-05-21T15:14:25.145Z,41.90
2023-05-21T15:16:55.048Z,42.10
2023-05-21T15:19:24.476Z,42.10
2023-05-21T15:21:53.898Z,42.10
2023-05-21T15:24:24.921Z,41.90
2023-05-21T15:26:53.899Z,41.70
2023-05-21T15:29:25.153Z,41.60
2023-05-21T15:31:54.744Z,41.80
2023-05-21T15:34:23.830Z,41.70
2023-05-21T15:36:53.298Z,41.60
2023-05-21T15:39:23.697Z,41.60
2023-05-21T15:41:54.223Z,41.70
2023-05-21T15:44:27.900Z,41.80
2023-05-21T15:46:57.055Z,41.90
2023-05-21T15:49:26.613Z,41.80
2023-05-21T15:51:57.958Z,41.90
2023-05-21T15:54:27.308Z,41.80
2023-05-21T15:56:58.469Z,41.70
2023-05-21T15:59:28.956Z,42.00
2023-05-21T16:01:58.509Z,42.00
2023-05-21T16:04:33.290Z,41.70
2023-05-21T16:07:04.899Z,41.90
2023-05-21T16:09:34.104Z,42.00
2023-05-21T16:12:04.823Z,42.50
2023-05-21T16:14:37.092Z,42.30
2023-05-21T16:17:07.019Z,42.10
2023-05-21T16:19:36.230Z,42.10
2023-05-21T16:22:10.035Z,41.90
2023-05-21T16:24:40.694Z,41.90
2023-05-21T16:27:11.957Z,42.00
2023-05-21T16:29:43.048Z,41.80
2023-05-21T16:32:15.476Z,41.80
2023-05-21T16:34:45.053Z,41.20
2023-05-21T16:37:14.762Z,41.30
2023-05-21T16:39:46.784Z,41.10
2023-05-21T16:42:16.492Z,41.30
2023-05-21T16:44:49.747Z,41.70
2023-05-21T16:47:19.034Z,41.50
2023-05-21T16:49:48.113Z,41.50
2023-05-21T16:52:20.066Z,41.40
2023-05-21T16:54:49.920Z,41.50
2023-05-21T16:57:19.158Z,41.90
2023-05-21T16:59:54.790Z,41.70
2023-05-21T17:02:24.952Z,41.80
2023-05-21T17:04:54.526Z,41.50
2023-05-21T17:07:23.615Z,41.50
2023-05-21T17:09:55.971Z,41.60
2023-05-21T17:12:28.225Z,41.90
2023-05-21T17:14:59.437Z,41.70
2023-05-21T17:17:29.657Z,41.70
2023-05-21T17:19:59.114Z,41.60
2023-05-21T17:22:30.219Z,41.60
2023-05-21T17:24:59.487Z,41.60
2023-05-21T17:27:29.035Z,41.60
2023-05-21T17:29:59.656Z,41.50
2023-05-21T17:32:31.616Z,41.60
2023-05-21T17:35:00.717Z,41.90
2023-05-21T17:37:32.927Z,41.80
2023-05-21T17:40:02.036Z,41.70
2023-05-21T17:42:31.201Z,41.80
2023-05-21T17:45:01.578Z,41.80
2023-05-21T17:47:32.852Z,41.70
2023-05-21T17:50:01.938Z,41.70
2023-05-21T17:52:31.006Z,41.80
2023-05-21T17:55:04.086Z,41.70
2023-05-21T17:57:33.669Z,41.70
2023-05-21T18:00:09.154Z,41.70
2023-05-21T18:02:43.978Z,41.70
2023-05-21T18:05:13.726Z,41.90
2023-05-21T18:07:42.936Z,42.00
2023-05-21T18:10:12.467Z,41.90
2023-05-21T18:12:47.683Z,42.00
2023-05-21T18:15:19.341Z,41.90
2023-05-21T18:17:49.034Z,42.00
2023-05-21T18:20:19.516Z,42.00
2023-05-21T18:22:51.031Z,42.20
2023-05-21T18:25:20.261Z,42.20
2023-05-21T18:27:50.081Z,42.30
2023-05-21T18:30:20.834Z,42.60
2023-05-21T18:32:50.176Z,42.70
2023-05-21T18:35:22.893Z,42.50
2023-05-21T18:37:52.029Z,42.80
2023-05-21T18:40:23.223Z,42.60
2023-05-21T18:42:55.727Z,42.80
2023-05-21T18:45:26.612Z,42.60
2023-05-21T18:47:58.712Z,43.00
2023-05-21T18:50:28.341Z,42.90
2023-05-21T18:52:57.705Z,42.70
2023-05-21T18:55:27.313Z,42.90
2023-05-21T18:57:56.549Z,43.20
2023-05-21T19:00:27.048Z,43.20
2023-05-21T19:02:56.408Z,43.30
2023-05-21T19:05:25.710Z,43.50
2023-05-21T19:07:55.896Z,43.70
2023-05-21T19:10:26.314Z,44.00
2023-05-21T19:12:55.654Z,44.10
2023-05-21T19:15:26.069Z,44.30
2023-05-21T19:17:55.381Z,44.30
2023-05-21T19:20:26.576Z,44.60
2023-05-21T19:22:55.896Z,44.70
2023-05-21T19:25:27.741Z,45.00
2023-05-21T19:27:56.645Z,44.70
2023-05-21T19:30:27.157Z,44.80
2023-05-21T19:32:56.387Z,45.20
2023-05-21T19:35:25.727Z,45.10
2023-05-21T19:37:59.249Z,45.40
2023-05-21T19:40:29.311Z,45.30
2023-05-21T19:43:01.853Z,45.60
2023-05-21T19:45:32.611Z,45.90
2023-05-21T19:48:02.004Z,46.00
2023-05-21T19:50:31.220Z,45.90
2023-05-21T19:53:00.713Z,46.40
2023-05-21T19:55:33.274Z,46.80
2023-05-21T19:58:02.497Z,46.70
2023-05-21T20:00:36.002Z,46.90
2023-05-21T20:03:07.197Z,47.70
2023-05-21T20:05:36.336Z,47.70
2023-05-21T20:08:06.198Z,48.70
2023-05-21T20:10:36.859Z,48.70
2023-05-21T20:13:09.041Z,49.40
2023-05-21T20:15:40.298Z,49.20
2023-05-21T20:18:10.414Z,49.00
2023-05-21T20:20:40.704Z,49.30
2023-05-21T20:23:13.689Z,49.70
2023-05-21T20:25:53.169Z,50.00
2023-05-21T20:28:23.858Z,49.50
2023-05-21T20:30:57.672Z,49.80
2023-05-21T20:33:28.350Z,50.40
2023-05-21T20:35:57.810Z,50.20
2023-05-21T20:38:27.404Z,50.00
2023-05-21T20:40:56.850Z,50.20
2023-05-21T20:43:26.218Z,50.00
2023-05-21T20:45:59.727Z,50.30
2023-05-21T20:48:32.027Z,50.90
2023-05-21T20:51:01.792Z,50.90
2023-05-21T20:53:31.320Z,50.80
2023-05-21T20:56:01.714Z,50.90
2023-05-21T20:58:31.687Z,51.20
2023-05-21T21:01:02.343Z,51.40
2023-05-21T21:03:34.298Z,51.40
2023-05-21T21:06:04.479Z,52.10
2023-05-21T21:08:34.735Z,51.40
2023-05-21T21:11:03.822Z,51.60
2023-05-21T21:13:33.120Z,51.70
2023-05-21T21:16:03.860Z,52.00
2023-05-21T21:18:33.004Z,52.30
2023-05-21T21:21:02.198Z,52.20
2023-05-21T21:23:31.359Z,52.70
2023-05-21T21:26:00.561Z,52.80
2023-05-21T21:28:29.724Z,52.70
2023-05-21T21:30:58.906Z,52.90
2023-05-21T21:33:29.379Z,52.90
2023-05-21T21:35:58.504Z,53.20
2023-05-21T21:38:27.633Z,53.50
2023-05-21T21:40:56.923Z,53.60
2023-05-21T21:43:26.210Z,53.70
2023-05-21T21:45:55.506Z,53.70
2023-05-21T21:48:24.661Z,53.80
2023-05-21T21:50:55.198Z,54.10
2023-05-21T21:53:24.258Z,54.40
2023-05-21T21:55:53.422Z,54.40
2023-05-21T21:58:22.993Z,54.50
2023-05-21T22:00:52.440Z,54.60
2023-05-21T22:03:22.033Z,54.60
2023-05-21T22:05:51.658Z,54.70
2023-05-21T22:08:21.994Z,54.80
2023-05-21T22:10:51.254Z,55.10
2023-05-21T22:13:20.454Z,55.00
2023-05-21T22:15:50.012Z,55.10
2023-05-21T22:18:31.842Z,55.30
2023-05-21T22:21:09.410Z,55.30
2023-05-21T22:23:40.903Z,55.50
2023-05-21T22:26:10.718Z,55.50
2023-05-21T22:28:39.909Z,55.40
2023-05-21T22:31:09.157Z,55.40
2023-05-21T22:33:38.160Z,55.60
2023-05-21T22:36:08.072Z,55.50
2023-05-21T22:38:37.748Z,55.50
2023-05-21T22:41:08.569Z,56.30
2023-05-21T22:43:38.366Z,55.60
2023-05-21T22:46:07.499Z,55.70
2023-05-21T22:48:37.371Z,55.70
2023-05-21T22:51:06.743Z,55.60
2023-05-21T22:53:35.741Z,55.70
2023-05-21T22:56:05.101Z,55.90
2023-05-21T22:58:36.885Z,56.30
2023-05-21T23:01:06.264Z,56.10
2023-05-21T23:03:35.774Z,55.90
2023-05-21T23:06:05.134Z,56.00
2023-05-21T23:08:34.348Z,56.30
2023-05-21T23:11:03.561Z,56.40
2023-05-21T23:13:32.516Z,56.40
2023-05-21T23:16:03.873Z,56.30
2023-05-21T23:18:34.308Z,56.60
2023-05-21T23:21:03.726Z,56.60
2023-05-21T23:23:33.086Z,56.70
2023-05-21T23:26:02.493Z,56.80
2023-05-21T23:28:32.013Z,56.80
2023-05-21T23:31:02.801Z,56.90
2023-05-21T23:33:32.150Z,57.20
2023-05-21T23:36:01.316Z,57.10
2023-05-21T23:38:30.448Z,57.30
2023-05-21T23:40:59.619Z,57.20
2023-05-21T23:43:29.035Z,57.10
2023-05-21T23:45:58.302Z,57.30
2023-05-21T23:48:28.833Z,57.30
2023-05-21T23:50:58.181Z,57.30
2023-05-21T23:53:27.347Z,57.30
2023-05-21T23:55:56.541Z,57.30
2023-05-21T23:58:25.604Z,57.30
